Impacts TAF Board
For situational awareness. Not to be used for flight planning purposes.
IDs:

KHOU - Houston/Hobby Arpt, TX, US

Issued at 1120 UTC 16 Aug 2022
Updated at 1239 UTC 16 Aug 2022
Potential Impact None Slight Moderate High
Time1153Z 16/13Z 16/14Z 16/15Z 16/16Z 16/17Z 16/18Z 16/19Z 16/20Z 16/21Z 16/22Z 16/23Z 17/00Z 17/01Z>>
Type OBS PRVL PRVL PRVL PRVL PRVL PRVL PRVL PRVL PRVL PRVL PRVL PRVL PRVL
VIS 10 >6 >6 >6 >6 >6 >6 >6 >6 >6 >6 >6 >6 >6
CIG 250 -- -- -- -- -- -- -- -- -- -- -- -- --
Cover BKN SCT SCT FEW FEW FEW FEW FEW FEW FEW FEW FEW FEW FEW
FltCat VFR VFR VFR VFR VFR VFR VFR VFR VFR VFR VFR VFR VFR VFR
WX -- -- -- -- -- -- -- -- -- -- -- -- -- --
WDir VRB VRB VRB 170 170 170 170 170 170 170 170 170 170 170
WSpd 0 3 3 8 8 8 8 8 8 8 8 8 8 8
WGst -- -- -- -- -- -- -- -- -- -- -- -- -- --
WSHgt -- -- -- -- -- -- -- -- -- -- -- -- -- --
WSDir -- -- -- -- -- -- -- -- -- -- -- -- -- --
WSSpd -- -- -- -- -- -- -- -- -- -- -- -- -- --
R04/22
XWnd VRB VRB VRB -6 -6 -6 -6 -6 -6 -6 -6 -6 -6 -6
HWnd VRB VRB VRB -5 -5 -5 -5 -5 -5 -5 -5 -5 -5 -5
R13/31
XWnd VRB VRB VRB -5 -5 -5 -5 -5 -5 -5 -5 -5 -5 -5
HWnd VRB VRB VRB 6 6 6 6 6 6 6 6 6 6 6
Raw TAF
KHOU 161120Z 1612/1712 VRB03KT P6SM SCT250
  FM161500 17008KT P6SM FEW035
  FM170500 VRB03KT P6SM FEW025


Raw METAR
KHOU 161153Z 00000KT 10SM FEW030 BKN250 25/23 A2993 RMK AO2 SLP138 T02500228 10267 20250 52005
KHOU 161053Z 00000KT 10SM FEW030 BKN250 26/23 A2992 RMK AO2 SLP135 T02560233
KHOU 160953Z 23004KT 10SM BKN250 25/23 A2992 RMK AO2 SLP136 T02500228

METAR Board
Radar Display
Forecast Discussion
For situational awareness. Not to be used for flight planning purposes.